Terminal Aerodrome Forecast
Issued by NWS Buffalo, NY

Home | Current Version | Previous Version | Text Only | Print | Product List | Glossary On
Versions: 1 2 3 4 5 6 7 8 9 10 11 12 13 14 15 16 17 18 19 20 21 22 23 24 25 26 27 28 29 30 31 32
000
FTUS41 KBUF 201100
TAFROC
TAF
KROC 201133Z 2012/2112 21006KT P6SM OVC100
     FM201800 22010KT P6SM VCSH OVC080
     FM210000 19009KT 6SM -SHRA OVC040
     FM210300 18010KT 6SM -SHRA OVC025
     FM210500 17010KT 4SM SHRA OVC020=

USA.gov is the U.S. government's official web portal to all federal, state and local government web resources and services.